sensor_id;sensor_type;location;lat;lon;timestamp;pressure;altitude;pressure_sealevel;temperature;humidity
24336;BME280;33098;52.400;16.880;2022-11-15T00:01:44;100944.48;;;6.75;95.23
24336;BME280;33098;52.400;16.880;2022-11-15T00:04:31;100944.95;;;6.76;95.20
24336;BME280;33098;52.400;16.880;2022-11-15T00:07:16;100937.07;;;6.75;95.19
24336;BME280;33098;52.400;16.880;2022-11-15T00:10:03;100932.88;;;6.74;95.29
24336;BME280;33098;52.400;16.880;2022-11-15T00:12:49;100935.57;;;6.74;95.36
24336;BME280;33098;52.400;16.880;2022-11-15T00:15:35;100937.15;;;6.63;95.17
24336;BME280;33098;52.400;16.880;2022-11-15T00:18:21;100933.94;;;6.61;95.33
24336;BME280;33098;52.400;16.880;2022-11-15T00:21:10;100928.60;;;6.65;95.66
24336;BME280;33098;52.400;16.880;2022-11-15T00:23:56;100924.85;;;6.66;95.68
24336;BME280;33098;52.400;16.880;2022-11-15T00:26:42;100926.80;;;6.65;95.75
24336;BME280;33098;52.400;16.880;2022-11-15T00:29:28;100918.95;;;6.67;95.87
24336;BME280;33098;52.400;16.880;2022-11-15T00:32:14;100919.80;;;6.68;96.06
24336;BME280;33098;52.400;16.880;2022-11-15T00:34:59;100912.02;;;6.71;96.08
24336;BME280;33098;52.400;16.880;2022-11-15T00:37:45;100908.77;;;6.73;96.13
24336;BME280;33098;52.400;16.880;2022-11-15T00:40:32;100908.73;;;6.77;96.30
24336;BME280;33098;52.400;16.880;2022-11-15T00:43:17;100914.73;;;6.80;96.27
24336;BME280;33098;52.400;16.880;2022-11-15T00:46:03;100911.66;;;6.81;96.26
24336;BME280;33098;52.400;16.880;2022-11-15T00:48:49;100910.67;;;6.83;96.10
24336;BME280;33098;52.400;16.880;2022-11-15T00:51:34;100915.73;;;6.88;96.32
24336;BME280;33098;52.400;16.880;2022-11-15T00:54:19;100912.15;;;6.82;96.08
24336;BME280;33098;52.400;16.880;2022-11-15T00:57:05;100917.55;;;6.74;95.91
24336;BME280;33098;52.400;16.880;2022-11-15T00:59:50;100916.34;;;6.74;96.07
24336;BME280;33098;52.400;16.880;2022-11-15T01:02:36;100908.86;;;6.81;96.34
24336;BME280;33098;52.400;16.880;2022-11-15T01:05:22;100907.46;;;6.87;96.39
24336;BME280;33098;52.400;16.880;2022-11-15T01:08:13;100908.36;;;6.84;96.29
24336;BME280;33098;52.400;16.880;2022-11-15T01:11:04;100901.29;;;6.81;96.05
24336;BME280;33098;52.400;16.880;2022-11-15T01:13:51;100900.10;;;6.83;96.22
24336;BME280;33098;52.400;16.880;2022-11-15T01:16:37;100894.66;;;6.83;96.20
24336;BME280;33098;52.400;16.880;2022-11-15T01:19:23;100890.30;;;6.82;96.13
24336;BME280;33098;52.400;16.880;2022-11-15T01:22:09;100883.33;;;6.77;96.12
24336;BME280;33098;52.400;16.880;2022-11-15T01:24:54;100874.79;;;6.75;96.15
24336;BME280;33098;52.400;16.880;2022-11-15T01:27:41;100878.41;;;6.74;96.23
24336;BME280;33098;52.400;16.880;2022-11-15T01:30:26;100874.05;;;6.76;96.43
24336;BME280;33098;52.400;16.880;2022-11-15T01:33:12;100875.88;;;6.81;96.49
24336;BME280;33098;52.400;16.880;2022-11-15T01:35:58;100873.83;;;6.86;96.68
24336;BME280;33098;52.400;16.880;2022-11-15T01:38:44;100870.91;;;6.78;96.37
24336;BME280;33098;52.400;16.880;2022-11-15T01:41:32;100865.80;;;6.68;96.24
24336;BME280;33098;52.400;16.880;2022-11-15T01:47:19;100862.88;;;6.48;96.12
24336;BME280;33098;52.400;16.880;2022-11-15T01:50:09;100854.42;;;6.54;96.71
24336;BME280;33098;52.400;16.880;2022-11-15T01:52:56;100855.09;;;6.52;96.79
24336;BME280;33098;52.400;16.880;2022-11-15T01:55:42;100849.98;;;6.55;96.81
24336;BME280;33098;52.400;16.880;2022-11-15T01:58:28;100846.65;;;6.54;97.15
24336;BME280;33098;52.400;16.880;2022-11-15T02:01:14;100842.95;;;6.51;97.08
24336;BME280;33098;52.400;16.880;2022-11-15T02:04:21;100844.58;;;6.50;97.23
24336;BME280;33098;52.400;16.880;2022-11-15T02:07:11;100841.16;;;6.55;97.39
24336;BME280;33098;52.400;16.880;2022-11-15T02:10:02;100842.31;;;6.60;97.55
24336;BME280;33098;52.400;16.880;2022-11-15T02:12:51;100833.86;;;6.60;97.67
24336;BME280;33098;52.400;16.880;2022-11-15T02:15:42;100839.92;;;6.61;97.55
24336;BME280;33098;52.400;16.880;2022-11-15T02:18:36;100838.98;;;6.59;97.60
24336;BME280;33098;52.400;16.880;2022-11-15T02:21:42;100831.19;;;6.63;97.89
24336;BME280;33098;52.400;16.880;2022-11-15T02:24:46;100832.98;;;6.69;97.89
24336;BME280;33098;52.400;16.880;2022-11-15T02:28:27;100835.58;;;6.66;97.60
24336;BME280;33098;52.400;16.880;2022-11-15T02:31:42;100830.05;;;6.61;97.55
24336;BME280;33098;52.400;16.880;2022-11-15T02:37:45;100825.55;;;6.66;97.68
24336;BME280;33098;52.400;16.880;2022-11-15T02:40:55;100821.56;;;6.68;97.64
24336;BME280;33098;52.400;16.880;2022-11-15T02:46:49;100829.11;;;6.65;97.34
24336;BME280;33098;52.400;16.880;2022-11-15T02:49:58;100825.49;;;6.64;97.24
24336;BME280;33098;52.400;16.880;2022-11-15T02:52:48;100818.55;;;6.59;97.17
24336;BME280;33098;52.400;16.880;2022-11-15T02:55:35;100816.40;;;6.59;97.18
24336;BME280;33098;52.400;16.880;2022-11-15T03:07:19;100808.52;;;6.32;96.92
24336;BME280;33098;52.400;16.880;2022-11-15T03:10:12;100804.89;;;6.15;96.76
24336;BME280;33098;52.400;16.880;2022-11-15T03:13:10;100802.17;;;6.13;97.04
24336;BME280;33098;52.400;16.880;2022-11-15T03:16:12;100802.08;;;6.15;97.46
24336;BME280;33098;52.400;16.880;2022-11-15T03:19:31;100792.86;;;6.23;97.79
24336;BME280;33098;52.400;16.880;2022-11-15T03:22:21;100783.79;;;6.30;97.99
24336;BME280;33098;52.400;16.880;2022-11-15T03:25:10;100784.06;;;6.19;97.61
24336;BME280;33098;52.400;16.880;2022-11-15T03:27:58;100783.08;;;6.24;98.21
24336;BME280;33098;52.400;16.880;2022-11-15T03:30:47;100779.89;;;6.34;98.20
24336;BME280;33098;52.400;16.880;2022-11-15T03:33:34;100783.13;;;6.23;97.78
24336;BME280;33098;52.400;16.880;2022-11-15T03:36:22;100779.41;;;6.17;97.85
24336;BME280;33098;52.400;16.880;2022-11-15T03:39:11;100778.06;;;6.16;97.83
24336;BME280;33098;52.400;16.880;2022-11-15T03:42:54;100772.17;;;6.17;98.13
24336;BME280;33098;52.400;16.880;2022-11-15T03:45:31;100778.41;;;6.29;98.35
24336;BME280;33098;52.400;16.880;2022-11-15T03:48:22;100784.11;;;6.31;98.15
24336;BME280;33098;52.400;16.880;2022-11-15T03:51:10;100778.95;;;6.32;98.32
24336;BME280;33098;52.400;16.880;2022-11-15T03:53:56;100783.82;;;6.33;98.29
24336;BME280;33098;52.400;16.880;2022-11-15T03:56:41;100780.59;;;6.21;97.87
24336;BME280;33098;52.400;16.880;2022-11-15T03:59:27;100779.66;;;6.22;98.00
24336;BME280;33098;52.400;16.880;2022-11-15T04:02:13;100778.33;;;6.18;98.10
24336;BME280;33098;52.400;16.880;2022-11-15T04:04:58;100781.56;;;6.26;98.39
24336;BME280;33098;52.400;16.880;2022-11-15T04:07:43;100776.62;;;6.27;98.43
24336;BME280;33098;52.400;16.880;2022-11-15T04:10:28;100783.98;;;6.30;98.63
24336;BME280;33098;52.400;16.880;2022-11-15T04:13:14;100774.92;;;6.34;98.65
24336;BME280;33098;52.400;16.880;2022-11-15T04:15:59;100773.45;;;6.39;98.73
24336;BME280;33098;52.400;16.880;2022-11-15T04:18:44;100770.25;;;6.40;98.48
24336;BME280;33098;52.400;16.880;2022-11-15T04:21:30;100762.69;;;6.39;98.59
24336;BME280;33098;52.400;16.880;2022-11-15T04:24:34;100765.15;;;6.29;98.04
24336;BME280;33098;52.400;16.880;2022-11-15T04:27:19;100764.95;;;6.17;97.81
24336;BME280;33098;52.400;16.880;2022-11-15T04:30:05;100763.98;;;6.19;98.19
24336;BME280;33098;52.400;16.880;2022-11-15T04:32:53;100764.89;;;6.28;98.51
24336;BME280;33098;52.400;16.880;2022-11-15T04:35:39;100764.08;;;6.36;98.69
24336;BME280;33098;52.400;16.880;2022-11-15T04:38:25;100765.33;;;6.35;98.53
24336;BME280;33098;52.400;16.880;2022-11-15T04:41:10;100766.21;;;6.30;98.45
24336;BME280;33098;52.400;16.880;2022-11-15T04:43:56;100761.22;;;6.31;98.59
24336;BME280;33098;52.400;16.880;2022-11-15T04:46:41;100770.03;;;6.30;98.45
24336;BME280;33098;52.400;16.880;2022-11-15T04:49:26;100773.86;;;6.22;98.13
24336;BME280;33098;52.400;16.880;2022-11-15T04:52:11;100767.35;;;6.15;98.05
24336;BME280;33098;52.400;16.880;2022-11-15T04:54:57;100758.50;;;6.13;98.30
24336;BME280;33098;52.400;16.880;2022-11-15T04:57:43;100759.79;;;6.21;98.73
24336;BME280;33098;52.400;16.880;2022-11-15T05:00:29;100753.29;;;6.28;98.89
24336;BME280;33098;52.400;16.880;2022-11-15T05:03:14;100746.08;;;6.33;98.89
24336;BME280;33098;52.400;16.880;2022-11-15T05:06:19;100755.67;;;6.29;98.57
24336;BME280;33098;52.400;16.880;2022-11-15T05:09:04;100754.94;;;6.17;98.27
24336;BME280;33098;52.400;16.880;2022-11-15T05:11:50;100742.59;;;6.01;97.76
24336;BME280;33098;52.400;16.880;2022-11-15T05:14:35;100738.27;;;5.99;98.15
24336;BME280;33098;52.400;16.880;2022-11-15T05:17:20;100734.21;;;6.09;98.60
24336;BME280;33098;52.400;16.880;2022-11-15T05:20:06;100735.00;;;6.17;98.61
24336;BME280;33098;52.400;16.880;2022-11-15T05:22:53;100732.10;;;6.15;98.55
24336;BME280;33098;52.400;16.880;2022-11-15T05:25:40;100736.42;;;6.14;98.56
24336;BME280;33098;52.400;16.880;2022-11-15T05:28:25;100736.25;;;6.14;98.56
24336;BME280;33098;52.400;16.880;2022-11-15T05:31:15;100731.27;;;6.04;98.29
24336;BME280;33098;52.400;16.880;2022-11-15T05:34:03;100727.24;;;6.04;98.66
24336;BME280;33098;52.400;16.880;2022-11-15T05:36:49;100727.11;;;6.03;98.48
24336;BME280;33098;52.400;16.880;2022-11-15T05:39:36;100728.56;;;5.99;98.57
24336;BME280;33098;52.400;16.880;2022-11-15T05:42:25;100732.86;;;6.05;98.76
24336;BME280;33098;52.400;16.880;2022-11-15T05:45:11;100730.17;;;6.12;99.02
24336;BME280;33098;52.400;16.880;2022-11-15T05:47:58;100740.88;;;6.10;98.77
24336;BME280;33098;52.400;16.880;2022-11-15T05:50:46;100738.25;;;5.89;98.26
24336;BME280;33098;52.400;16.880;2022-11-15T05:53:33;100741.83;;;5.91;98.70
24336;BME280;33098;52.400;16.880;2022-11-15T05:56:20;100744.64;;;5.89;98.70
24336;BME280;33098;52.400;16.880;2022-11-15T05:59:08;100735.61;;;5.92;98.99
24336;BME280;33098;52.400;16.880;2022-11-15T06:01:54;100738.25;;;5.99;99.22
24336;BME280;33098;52.400;16.880;2022-11-15T06:04:39;100733.21;;;6.05;99.31
24336;BME280;33098;52.400;16.880;2022-11-15T06:07:24;100732.33;;;6.12;99.22
24336;BME280;33098;52.400;16.880;2022-11-15T06:10:10;100740.63;;;5.98;98.68
24336;BME280;33098;52.400;16.880;2022-11-15T06:12:58;100744.52;;;5.91;98.69
24336;BME280;33098;52.400;16.880;2022-11-15T06:15:43;100741.83;;;5.82;98.56
24336;BME280;33098;52.400;16.880;2022-11-15T06:18:32;100743.91;;;5.86;98.83
24336;BME280;33098;52.400;16.880;2022-11-15T06:21:18;100744.68;;;5.88;99.07
24336;BME280;33098;52.400;16.880;2022-11-15T06:24:05;100745.45;;;5.89;99.03
24336;BME280;33098;52.400;16.880;2022-11-15T06:26:51;100738.51;;;5.95;99.22
24336;BME280;33098;52.400;16.880;2022-11-15T06:29:36;100744.20;;;5.90;99.07
24336;BME280;33098;52.400;16.880;2022-11-15T06:32:22;100742.70;;;5.88;99.10
24336;BME280;33098;52.400;16.880;2022-11-15T06:35:07;100745.29;;;5.96;99.37
24336;BME280;33098;52.400;16.880;2022-11-15T06:37:52;100744.21;;;6.00;99.43
24336;BME280;33098;52.400;16.880;2022-11-15T06:40:39;100747.20;;;6.10;99.75
24336;BME280;33098;52.400;16.880;2022-11-15T06:43:24;100746.67;;;6.07;99.34
24336;BME280;33098;52.400;16.880;2022-11-15T06:46:10;100753.55;;;5.96;98.97
24336;BME280;33098;52.400;16.880;2022-11-15T06:48:55;100752.48;;;6.00;99.16
24336;BME280;33098;52.400;16.880;2022-11-15T06:51:40;100748.81;;;6.03;99.25
24336;BME280;33098;52.400;16.880;2022-11-15T06:54:26;100751.08;;;6.07;99.31
24336;BME280;33098;52.400;16.880;2022-11-15T06:57:12;100759.12;;;6.01;99.12
24336;BME280;33098;52.400;16.880;2022-11-15T06:59:57;100756.33;;;6.07;99.35
24336;BME280;33098;52.400;16.880;2022-11-15T07:02:42;100754.63;;;6.16;99.43
24336;BME280;33098;52.400;16.880;2022-11-15T07:05:28;100749.98;;;6.11;99.14
24336;BME280;33098;52.400;16.880;2022-11-15T07:08:13;100759.75;;;6.09;99.02
24336;BME280;33098;52.400;16.880;2022-11-15T07:11:01;100756.85;;;6.11;99.10
24336;BME280;33098;52.400;16.880;2022-11-15T07:13:46;100759.14;;;6.14;99.20
24336;BME280;33098;52.400;16.880;2022-11-15T07:16:32;100763.48;;;6.18;99.19
24336;BME280;33098;52.400;16.880;2022-11-15T07:19:17;100754.10;;;6.13;98.85
24336;BME280;33098;52.400;16.880;2022-11-15T07:22:03;100752.94;;;6.11;98.95
24336;BME280;33098;52.400;16.880;2022-11-15T07:24:48;100759.17;;;6.10;98.92
24336;BME280;33098;52.400;16.880;2022-11-15T07:27:35;100757.99;;;5.99;98.62
24336;BME280;33098;52.400;16.880;2022-11-15T07:30:20;100758.53;;;5.99;98.90
24336;BME280;33098;52.400;16.880;2022-11-15T07:33:05;100763.66;;;6.09;99.29
24336;BME280;33098;52.400;16.880;2022-11-15T07:35:50;100763.77;;;6.03;98.91
24336;BME280;33098;52.400;16.880;2022-11-15T07:38:36;100758.48;;;5.96;99.00
24336;BME280;33098;52.400;16.880;2022-11-15T07:41:22;100752.12;;;5.97;99.13
24336;BME280;33098;52.400;16.880;2022-11-15T07:44:07;100756.86;;;6.04;99.58
24336;BME280;33098;52.400;16.880;2022-11-15T07:46:53;100754.58;;;6.14;99.85
24336;BME280;33098;52.400;16.880;2022-11-15T07:49:38;100748.02;;;6.24;99.79
24336;BME280;33098;52.400;16.880;2022-11-15T07:52:23;100744.33;;;6.30;99.99
24336;BME280;33098;52.400;16.880;2022-11-15T07:55:09;100743.43;;;6.37;99.95
24336;BME280;33098;52.400;16.880;2022-11-15T07:58:06;100749.29;;;6.46;99.98
24336;BME280;33098;52.400;16.880;2022-11-15T08:00:51;100746.13;;;6.46;99.77
24336;BME280;33098;52.400;16.880;2022-11-15T08:03:37;100743.00;;;6.51;99.89
24336;BME280;33098;52.400;16.880;2022-11-15T08:06:22;100745.81;;;6.60;99.92
24336;BME280;33098;52.400;16.880;2022-11-15T08:09:08;100745.41;;;6.61;99.65
24336;BME280;33098;52.400;16.880;2022-11-15T08:11:53;100738.42;;;6.59;99.50
24336;BME280;33098;52.400;16.880;2022-11-15T08:14:39;100738.17;;;6.61;99.42
24336;BME280;33098;52.400;16.880;2022-11-15T08:17:25;100729.44;;;6.63;99.39
24336;BME280;33098;52.400;16.880;2022-11-15T08:20:10;100726.64;;;6.65;99.42
24336;BME280;33098;52.400;16.880;2022-11-15T08:23:00;100724.19;;;6.71;99.46
24336;BME280;33098;52.400;16.880;2022-11-15T08:25:45;100728.32;;;6.76;99.62
24336;BME280;33098;52.400;16.880;2022-11-15T08:28:32;100729.38;;;6.85;99.63
24336;BME280;33098;52.400;16.880;2022-11-15T08:31:18;100720.06;;;6.94;99.63
24336;BME280;33098;52.400;16.880;2022-11-15T08:34:05;100718.83;;;6.97;99.44
24336;BME280;33098;52.400;16.880;2022-11-15T08:36:50;100710.87;;;6.97;99.17
24336;BME280;33098;52.400;16.880;2022-11-15T08:39:35;100709.72;;;7.04;99.17
24336;BME280;33098;52.400;16.880;2022-11-15T08:42:21;100708.52;;;7.07;98.98
24336;BME280;33098;52.400;16.880;2022-11-15T08:45:08;100705.77;;;7.03;98.62
24336;BME280;33098;52.400;16.880;2022-11-15T08:47:53;100702.65;;;7.02;98.45
24336;BME280;33098;52.400;16.880;2022-11-15T08:50:38;100703.39;;;7.04;98.54
24336;BME280;33098;52.400;16.880;2022-11-15T08:53:24;100703.42;;;7.09;98.46
24336;BME280;33098;52.400;16.880;2022-11-15T08:56:11;100704.23;;;7.05;98.14
24336;BME280;33098;52.400;16.880;2022-11-15T08:58:57;100703.69;;;6.90;97.48
24336;BME280;33098;52.400;16.880;2022-11-15T09:01:43;100699.28;;;6.72;97.27
24336;BME280;33098;52.400;16.880;2022-11-15T09:04:29;100695.94;;;6.68;97.52
24336;BME280;33098;52.400;16.880;2022-11-15T09:07:15;100697.86;;;6.72;97.99
24336;BME280;33098;52.400;16.880;2022-11-15T09:10:00;100697.68;;;6.81;98.42
24336;BME280;33098;52.400;16.880;2022-11-15T09:12:45;100690.67;;;6.92;98.72
24336;BME280;33098;52.400;16.880;2022-11-15T09:15:33;100689.71;;;6.99;98.77
24336;BME280;33098;52.400;16.880;2022-11-15T09:18:18;100687.85;;;6.99;98.68
24336;BME280;33098;52.400;16.880;2022-11-15T09:21:05;100691.82;;;7.06;98.79
24336;BME280;33098;52.400;16.880;2022-11-15T09:23:51;100694.75;;;7.07;98.68
24336;BME280;33098;52.400;16.880;2022-11-15T09:26:37;100693.12;;;7.02;98.34
24336;BME280;33098;52.400;16.880;2022-11-15T09:29:22;100692.53;;;6.88;97.87
24336;BME280;33098;52.400;16.880;2022-11-15T09:32:07;100691.36;;;6.90;98.46
24336;BME280;33098;52.400;16.880;2022-11-15T09:34:53;100690.38;;;7.06;98.99
24336;BME280;33098;52.400;16.880;2022-11-15T09:37:38;100694.40;;;7.18;99.14
24336;BME280;33098;52.400;16.880;2022-11-15T09:40:24;100692.50;;;7.00;98.28
24336;BME280;33098;52.400;16.880;2022-11-15T09:49:11;100678.17;;;6.98;99.36
24336;BME280;33098;52.400;16.880;2022-11-15T09:52:10;100678.96;;;7.06;99.52
24336;BME280;33098;52.400;16.880;2022-11-15T09:54:47;100684.02;;;7.13;99.77
24336;BME280;33098;52.400;16.880;2022-11-15T09:57:20;100680.61;;;7.28;100.00
24336;BME280;33098;52.400;16.880;2022-11-15T10:00:12;100676.09;;;7.44;100.00
24336;BME280;33098;52.400;16.880;2022-11-15T10:05:18;100666.35;;;7.70;100.00
24336;BME280;33098;52.400;16.880;2022-11-15T10:12:57;100663.06;;;7.69;99.17
24336;BME280;33098;52.400;16.880;2022-11-15T10:15:25;100667.27;;;7.73;98.90
24336;BME280;33098;52.400;16.880;2022-11-15T10:18:08;100660.45;;;7.66;98.76
24336;BME280;33098;52.400;16.880;2022-11-15T10:20:47;100663.72;;;7.59;98.28
24336;BME280;33098;52.400;16.880;2022-11-15T10:23:22;100663.96;;;7.49;98.23
24336;BME280;33098;52.400;16.880;2022-11-15T10:26:00;100666.77;;;7.55;98.63
24336;BME280;33098;52.400;16.880;2022-11-15T10:28:30;100661.87;;;7.65;99.02
24336;BME280;33098;52.400;16.880;2022-11-15T10:30:59;100660.98;;;7.74;99.07
24336;BME280;33098;52.400;16.880;2022-11-15T10:33:38;100655.27;;;7.80;99.10
24336;BME280;33098;52.400;16.880;2022-11-15T10:38:53;100657.26;;;8.08;99.65
24336;BME280;33098;52.400;16.880;2022-11-15T10:44:19;100656.52;;;8.14;98.81
24336;BME280;33098;52.400;16.880;2022-11-15T10:49:26;100647.09;;;7.98;97.99
24336;BME280;33098;52.400;16.880;2022-11-15T10:54:54;100640.52;;;7.98;98.10
24336;BME280;33098;52.400;16.880;2022-11-15T10:57:27;100640.70;;;7.95;97.90
24336;BME280;33098;52.400;16.880;2022-11-15T11:00:13;100640.89;;;8.01;98.23
24336;BME280;33098;52.400;16.880;2022-11-15T11:05:29;100639.05;;;8.16;98.40
24336;BME280;33098;52.400;16.880;2022-11-15T11:08:02;100638.33;;;8.19;98.24
24336;BME280;33098;52.400;16.880;2022-11-15T11:10:29;100632.20;;;8.26;98.47
24336;BME280;33098;52.400;16.880;2022-11-15T11:13:12;100626.52;;;8.37;98.52
24336;BME280;33098;52.400;16.880;2022-11-15T11:15:43;100617.68;;;8.46;98.38
24336;BME280;33098;52.400;16.880;2022-11-15T11:18:20;100619.41;;;8.49;98.09
24336;BME280;33098;52.400;16.880;2022-11-15T11:20:55;100615.55;;;8.51;97.68
24336;BME280;33098;52.400;16.880;2022-11-15T11:31:24;100606.06;;;8.55;97.15
24336;BME280;33098;52.400;16.880;2022-11-15T11:48:46;100579.91;;;8.73;97.14
24336;BME280;33098;52.400;16.880;2022-11-15T11:53:55;100573.77;;;8.86;96.87
24336;BME280;33098;52.400;16.880;2022-11-15T11:56:27;100574.27;;;8.93;96.86
24336;BME280;33098;52.400;16.880;2022-11-15T11:59:02;100577.98;;;9.01;96.78
24336;BME280;33098;52.400;16.880;2022-11-15T12:01:37;100571.69;;;9.08;96.60
24336;BME280;33098;52.400;16.880;2022-11-15T12:04:15;100571.92;;;9.12;96.26
24336;BME280;33098;52.400;16.880;2022-11-15T12:09:46;100562.36;;;8.99;95.49
24336;BME280;33098;52.400;16.880;2022-11-15T12:15:22;100565.45;;;8.98;95.34
24336;BME280;33098;52.400;16.880;2022-11-15T12:17:50;100562.48;;;8.99;95.32
24336;BME280;33098;52.400;16.880;2022-11-15T12:22:56;100556.96;;;8.75;94.37
24336;BME280;33098;52.400;16.880;2022-11-15T12:25:30;100551.16;;;8.59;94.24
24336;BME280;33098;52.400;16.880;2022-11-15T12:33:46;100539.97;;;8.64;95.27
24336;BME280;33098;52.400;16.880;2022-11-15T12:36:42;100541.30;;;8.63;95.05
24336;BME280;33098;52.400;16.880;2022-11-15T12:39:12;100543.05;;;8.66;95.52
24336;BME280;33098;52.400;16.880;2022-11-15T12:47:02;100548.49;;;8.95;96.15
24336;BME280;33098;52.400;16.880;2022-11-15T12:52:06;100541.95;;;9.00;95.79
24336;BME280;33098;52.400;16.880;2022-11-15T12:57:36;100537.15;;;8.95;95.34
24336;BME280;33098;52.400;16.880;2022-11-15T13:02:39;100532.70;;;8.95;95.38
24336;BME280;33098;52.400;16.880;2022-11-15T13:07:55;100528.57;;;8.94;95.24
24336;BME280;33098;52.400;16.880;2022-11-15T13:13:03;100516.77;;;8.93;94.99
24336;BME280;33098;52.400;16.880;2022-11-15T13:15:34;100513.56;;;8.91;94.96
24336;BME280;33098;52.400;16.880;2022-11-15T13:20:50;100509.95;;;8.87;94.87
24336;BME280;33098;52.400;16.880;2022-11-15T13:23:16;100508.81;;;8.88;95.04
24336;BME280;33098;52.400;16.880;2022-11-15T13:25:55;100510.98;;;8.95;95.20
24336;BME280;33098;52.400;16.880;2022-11-15T13:28:31;100507.10;;;8.94;95.01
24336;BME280;33098;52.400;16.880;2022-11-15T13:31:21;100506.05;;;8.84;94.58
24336;BME280;33098;52.400;16.880;2022-11-15T13:33:49;100500.66;;;8.83;94.81
24336;BME280;33098;52.400;16.880;2022-11-15T13:36:22;100499.73;;;8.86;94.89
24336;BME280;33098;52.400;16.880;2022-11-15T13:38:58;100497.84;;;8.85;94.73
24336;BME280;33098;52.400;16.880;2022-11-15T13:41:28;100497.27;;;8.76;94.46
24336;BME280;33098;52.400;16.880;2022-11-15T13:43:56;100499.08;;;8.73;94.54
24336;BME280;33098;52.400;16.880;2022-11-15T13:46:41;100495.26;;;8.69;94.40
24336;BME280;33098;52.400;16.880;2022-11-15T13:49:09;100491.27;;;8.65;94.66
24336;BME280;33098;52.400;16.880;2022-11-15T13:51:52;100490.29;;;8.64;94.70
24336;BME280;33098;52.400;16.880;2022-11-15T13:54:35;100500.54;;;8.69;95.04
24336;BME280;33098;52.400;16.880;2022-11-15T13:57:15;100499.55;;;8.71;95.08
24336;BME280;33098;52.400;16.880;2022-11-15T13:59:48;100493.58;;;8.70;95.05
24336;BME280;33098;52.400;16.880;2022-11-15T14:02:26;100493.23;;;8.73;95.21
24336;BME280;33098;52.400;16.880;2022-11-15T14:04:59;100483.77;;;8.77;95.12
24336;BME280;33098;52.400;16.880;2022-11-15T14:07:30;100485.75;;;8.69;94.83
24336;BME280;33098;52.400;16.880;2022-11-15T14:09:56;100485.39;;;8.61;94.78
24336;BME280;33098;52.400;16.880;2022-11-15T14:14:59;100486.42;;;8.56;94.95
24336;BME280;33098;52.400;16.880;2022-11-15T14:17:35;100486.38;;;8.57;95.16
24336;BME280;33098;52.400;16.880;2022-11-15T14:22:57;100487.92;;;8.50;95.13
24336;BME280;33098;52.400;16.880;2022-11-15T14:25:25;100488.39;;;8.51;95.48
24336;BME280;33098;52.400;16.880;2022-11-15T14:28:10;100489.45;;;8.51;95.49
24336;BME280;33098;52.400;16.880;2022-11-15T14:30:39;100485.30;;;8.47;95.41
24336;BME280;33098;52.400;16.880;2022-11-15T14:35:55;100483.31;;;8.53;95.80
24336;BME280;33098;52.400;16.880;2022-11-15T14:38:24;100478.11;;;8.43;95.37
24336;BME280;33098;52.400;16.880;2022-11-15T14:40:51;100476.29;;;8.41;95.66
24336;BME280;33098;52.400;16.880;2022-11-15T14:43:18;100471.64;;;8.47;95.86
24336;BME280;33098;52.400;16.880;2022-11-15T14:45:45;100467.42;;;8.44;95.58
24336;BME280;33098;52.400;16.880;2022-11-15T14:48:12;100468.64;;;8.39;95.49
24336;BME280;33098;52.400;16.880;2022-11-15T14:50:39;100475.39;;;8.33;95.62
24336;BME280;33098;52.400;16.880;2022-11-15T14:53:17;100474.52;;;8.25;95.48
24336;BME280;33098;52.400;16.880;2022-11-15T14:55:44;100464.14;;;8.17;95.52
24336;BME280;33098;52.400;16.880;2022-11-15T14:58:10;100456.19;;;8.04;95.52
24336;BME280;33098;52.400;16.880;2022-11-15T15:00:38;100451.66;;;8.06;96.04
24336;BME280;33098;52.400;16.880;2022-11-15T15:03:07;100447.38;;;8.14;96.58
24336;BME280;33098;52.400;16.880;2022-11-15T15:05:40;100449.09;;;8.17;96.73
24336;BME280;33098;52.400;16.880;2022-11-15T15:08:07;100449.67;;;8.22;96.98
24336;BME280;33098;52.400;16.880;2022-11-15T15:10:37;100444.49;;;8.25;97.16
24336;BME280;33098;52.400;16.880;2022-11-15T15:13:15;100440.59;;;8.28;97.19
24336;BME280;33098;52.400;16.880;2022-11-15T15:15:42;100443.23;;;8.30;97.28
24336;BME280;33098;52.400;16.880;2022-11-15T15:18:09;100450.23;;;8.26;97.16
24336;BME280;33098;52.400;16.880;2022-11-15T15:20:39;100457.20;;;8.25;97.18
24336;BME280;33098;52.400;16.880;2022-11-15T15:23:18;100457.04;;;8.20;97.10
24336;BME280;33098;52.400;16.880;2022-11-15T15:25:47;100448.35;;;8.15;97.16
24336;BME280;33098;52.400;16.880;2022-11-15T15:28:16;100442.70;;;8.17;97.51
24336;BME280;33098;52.400;16.880;2022-11-15T15:30:43;100437.03;;;8.25;97.91
24336;BME280;33098;52.400;16.880;2022-11-15T15:33:10;100428.42;;;8.32;97.95
24336;BME280;33098;52.400;16.880;2022-11-15T15:35:36;100425.13;;;8.28;97.84
24336;BME280;33098;52.400;16.880;2022-11-15T15:38:03;100426.14;;;8.29;97.84
24336;BME280;33098;52.400;16.880;2022-11-15T15:40:32;100424.58;;;8.32;97.99
24336;BME280;33098;52.400;16.880;2022-11-15T15:42:59;100423.17;;;8.31;97.87
24336;BME280;33098;52.400;16.880;2022-11-15T15:45:26;100420.05;;;8.30;97.94
24336;BME280;33098;52.400;16.880;2022-11-15T15:47:55;100423.11;;;8.27;97.79
24336;BME280;33098;52.400;16.880;2022-11-15T15:50:28;100423.15;;;8.27;97.86
24336;BME280;33098;52.400;16.880;2022-11-15T15:52:59;100423.83;;;8.27;98.00
24336;BME280;33098;52.400;16.880;2022-11-15T15:55:26;100429.91;;;8.24;97.85
24336;BME280;33098;52.400;16.880;2022-11-15T15:57:53;100427.95;;;8.16;97.85
24336;BME280;33098;52.400;16.880;2022-11-15T16:00:21;100423.61;;;8.17;98.06
24336;BME280;33098;52.400;16.880;2022-11-15T16:02:49;100428.06;;;8.17;98.19
24336;BME280;33098;52.400;16.880;2022-11-15T16:05:16;100430.39;;;8.19;98.22